sensor_id;sensor_type;location;lat;lon;timestamp;P1;P2;P0
55591;PMS5003;41454;53.396;-1.510;2022-12-08T00:02:04;3;3;
55591;PMS5003;41454;53.396;-1.510;2022-12-08T00:04:31;3;3;
55591;PMS5003;41454;53.396;-1.510;2022-12-08T00:06:58;2;2;
55591;PMS5003;41454;53.396;-1.510;2022-12-08T00:09:27;2;2;
55591;PMS5003;41454;53.396;-1.510;2022-12-08T00:11:57;2;2;
55591;PMS5003;41454;53.396;-1.510;2022-12-08T00:14:27;1;1;
55591;PMS5003;41454;53.396;-1.510;2022-12-08T00:16:56;1;1;
55591;PMS5003;41454;53.396;-1.510;2022-12-08T00:19:24;2;2;
55591;PMS5003;41454;53.396;-1.510;2022-12-08T00:21:53;2;2;
55591;PMS5003;41454;53.396;-1.510;2022-12-08T00:24:21;2;2;
55591;PMS5003;41454;53.396;-1.510;2022-12-08T00:26:51;1;1;
55591;PMS5003;41454;53.396;-1.510;2022-12-08T00:29:18;2;2;
55591;PMS5003;41454;53.396;-1.510;2022-12-08T00:31:45;2;2;
55591;PMS5003;41454;53.396;-1.510;2022-12-08T00:34:12;2;2;
55591;PMS5003;41454;53.396;-1.510;2022-12-08T00:36:39;2;1;
55591;PMS5003;41454;53.396;-1.510;2022-12-08T00:39:08;4;2;
55591;PMS5003;41454;53.396;-1.510;2022-12-08T00:41:35;2;2;
55591;PMS5003;41454;53.396;-1.510;2022-12-08T00:44:02;4;3;
55591;PMS5003;41454;53.396;-1.510;2022-12-08T00:46:30;1;1;
55591;PMS5003;41454;53.396;-1.510;2022-12-08T00:48:57;1;1;
55591;PMS5003;41454;53.396;-1.510;2022-12-08T00:51:24;2;2;
55591;PMS5003;41454;53.396;-1.510;2022-12-08T00:53:51;1;1;
55591;PMS5003;41454;53.396;-1.510;2022-12-08T00:56:18;3;1;
55591;PMS5003;41454;53.396;-1.510;2022-12-08T00:58:45;2;2;
55591;PMS5003;41454;53.396;-1.510;2022-12-08T01:01:14;0;0;
55591;PMS5003;41454;53.396;-1.510;2022-12-08T01:03:44;1;1;
55591;PMS5003;41454;53.396;-1.510;2022-12-08T01:06:11;1;1;
55591;PMS5003;41454;53.396;-1.510;2022-12-08T01:08:38;2;2;
55591;PMS5003;41454;53.396;-1.510;2022-12-08T01:11:07;2;2;
55591;PMS5003;41454;53.396;-1.510;2022-12-08T01:13:36;0;0;
55591;PMS5003;41454;53.396;-1.510;2022-12-08T01:16:04;2;1;
55591;PMS5003;41454;53.396;-1.510;2022-12-08T01:18:31;3;3;
55591;PMS5003;41454;53.396;-1.510;2022-12-08T01:21:01;2;2;
55591;PMS5003;41454;53.396;-1.510;2022-12-08T01:23:28;5;2;
55591;PMS5003;41454;53.396;-1.510;2022-12-08T01:26:00;3;2;
55591;PMS5003;41454;53.396;-1.510;2022-12-08T01:28:27;2;1;
55591;PMS5003;41454;53.396;-1.510;2022-12-08T01:30:55;3;1;
55591;PMS5003;41454;53.396;-1.510;2022-12-08T01:33:22;2;2;
55591;PMS5003;41454;53.396;-1.510;2022-12-08T01:35:50;1;1;
55591;PMS5003;41454;53.396;-1.510;2022-12-08T01:38:18;0;0;
55591;PMS5003;41454;53.396;-1.510;2022-12-08T01:40:45;1;1;
55591;PMS5003;41454;53.396;-1.510;2022-12-08T01:43:12;1;1;
55591;PMS5003;41454;53.396;-1.510;2022-12-08T01:45:41;2;1;
55591;PMS5003;41454;53.396;-1.510;2022-12-08T01:48:09;1;1;
55591;PMS5003;41454;53.396;-1.510;2022-12-08T01:50:41;1;1;
55591;PMS5003;41454;53.396;-1.510;2022-12-08T01:53:09;1;1;
55591;PMS5003;41454;53.396;-1.510;2022-12-08T01:55:41;0;0;
55591;PMS5003;41454;53.396;-1.510;2022-12-08T01:58:14;1;1;
55591;PMS5003;41454;53.396;-1.510;2022-12-08T02:00:45;2;2;
55591;PMS5003;41454;53.396;-1.510;2022-12-08T02:03:15;1;1;
55591;PMS5003;41454;53.396;-1.510;2022-12-08T02:05:47;1;1;
55591;PMS5003;41454;53.396;-1.510;2022-12-08T02:08:15;0;0;
55591;PMS5003;41454;53.396;-1.510;2022-12-08T02:10:42;1;1;
55591;PMS5003;41454;53.396;-1.510;2022-12-08T02:13:12;1;1;
55591;PMS5003;41454;53.396;-1.510;2022-12-08T02:15:44;2;2;
55591;PMS5003;41454;53.396;-1.510;2022-12-08T02:18:26;2;1;
55591;PMS5003;41454;53.396;-1.510;2022-12-08T02:21:08;0;0;
55591;PMS5003;41454;53.396;-1.510;2022-12-08T02:23:46;2;2;
55591;PMS5003;41454;53.396;-1.510;2022-12-08T02:26:30;1;1;
55591;PMS5003;41454;53.396;-1.510;2022-12-08T02:30:23;1;1;
55591;PMS5003;41454;53.396;-1.510;2022-12-08T02:33:17;1;1;
55591;PMS5003;41454;53.396;-1.510;2022-12-08T02:35:59;0;0;
55591;PMS5003;41454;53.396;-1.510;2022-12-08T02:38:39;2;2;
55591;PMS5003;41454;53.396;-1.510;2022-12-08T02:41:17;0;0;
55591;PMS5003;41454;53.396;-1.510;2022-12-08T02:43:50;1;1;
55591;PMS5003;41454;53.396;-1.510;2022-12-08T02:46:23;1;1;
55591;PMS5003;41454;53.396;-1.510;2022-12-08T02:48:56;0;0;
55591;PMS5003;41454;53.396;-1.510;2022-12-08T02:51:26;1;1;
55591;PMS5003;41454;53.396;-1.510;2022-12-08T02:53:53;1;1;
55591;PMS5003;41454;53.396;-1.510;2022-12-08T02:56:32;1;1;
55591;PMS5003;41454;53.396;-1.510;2022-12-08T02:59:09;1;1;
55591;PMS5003;41454;53.396;-1.510;2022-12-08T03:01:51;0;0;
55591;PMS5003;41454;53.396;-1.510;2022-12-08T03:04:35;1;1;
55591;PMS5003;41454;53.396;-1.510;2022-12-08T03:07:13;2;2;
55591;PMS5003;41454;53.396;-1.510;2022-12-08T03:09:50;1;1;
55591;PMS5003;41454;53.396;-1.510;2022-12-08T03:12:24;1;1;
55591;PMS5003;41454;53.396;-1.510;2022-12-08T03:14:58;1;1;
55591;PMS5003;41454;53.396;-1.510;2022-12-08T03:17:28;1;1;
55591;PMS5003;41454;53.396;-1.510;2022-12-08T03:19:58;1;1;
55591;PMS5003;41454;53.396;-1.510;2022-12-08T03:22:29;1;1;
55591;PMS5003;41454;53.396;-1.510;2022-12-08T03:24:58;2;2;
55591;PMS5003;41454;53.396;-1.510;2022-12-08T03:27:26;2;0;
55591;PMS5003;41454;53.396;-1.510;2022-12-08T03:29:57;0;0;
55591;PMS5003;41454;53.396;-1.510;2022-12-08T03:32:26;0;0;
55591;PMS5003;41454;53.396;-1.510;2022-12-08T03:35:04;1;1;
55591;PMS5003;41454;53.396;-1.510;2022-12-08T03:37:37;1;1;
55591;PMS5003;41454;53.396;-1.510;2022-12-08T03:40:08;1;1;
55591;PMS5003;41454;53.396;-1.510;2022-12-08T03:42:38;0;0;
55591;PMS5003;41454;53.396;-1.510;2022-12-08T03:45:06;1;1;
55591;PMS5003;41454;53.396;-1.510;2022-12-08T03:47:33;0;0;
55591;PMS5003;41454;53.396;-1.510;2022-12-08T03:50:01;2;2;
55591;PMS5003;41454;53.396;-1.510;2022-12-08T03:52:28;1;1;
55591;PMS5003;41454;53.396;-1.510;2022-12-08T03:54:55;1;1;
55591;PMS5003;41454;53.396;-1.510;2022-12-08T03:57:22;1;1;
55591;PMS5003;41454;53.396;-1.510;2022-12-08T03:59:49;1;1;
55591;PMS5003;41454;53.396;-1.510;2022-12-08T04:02:16;1;1;
55591;PMS5003;41454;53.396;-1.510;2022-12-08T04:04:43;2;2;
55591;PMS5003;41454;53.396;-1.510;2022-12-08T04:07:10;1;1;
55591;PMS5003;41454;53.396;-1.510;2022-12-08T04:09:36;1;1;
55591;PMS5003;41454;53.396;-1.510;2022-12-08T04:12:03;0;0;
55591;PMS5003;41454;53.396;-1.510;2022-12-08T04:14:31;1;1;
55591;PMS5003;41454;53.396;-1.510;2022-12-08T04:16:57;1;1;
55591;PMS5003;41454;53.396;-1.510;2022-12-08T04:19:24;1;0;
55591;PMS5003;41454;53.396;-1.510;2022-12-08T04:21:52;1;1;
55591;PMS5003;41454;53.396;-1.510;2022-12-08T04:24:19;1;1;
55591;PMS5003;41454;53.396;-1.510;2022-12-08T04:26:46;1;1;
55591;PMS5003;41454;53.396;-1.510;2022-12-08T04:29:13;3;1;
55591;PMS5003;41454;53.396;-1.510;2022-12-08T04:31:40;0;0;
55591;PMS5003;41454;53.396;-1.510;2022-12-08T04:34:07;1;1;
55591;PMS5003;41454;53.396;-1.510;2022-12-08T04:36:35;1;1;
55591;PMS5003;41454;53.396;-1.510;2022-12-08T04:39:02;1;1;
55591;PMS5003;41454;53.396;-1.510;2022-12-08T04:41:29;0;0;
55591;PMS5003;41454;53.396;-1.510;2022-12-08T04:43:56;1;1;
55591;PMS5003;41454;53.396;-1.510;2022-12-08T04:46:24;2;2;
55591;PMS5003;41454;53.396;-1.510;2022-12-08T04:48:51;1;1;
55591;PMS5003;41454;53.396;-1.510;2022-12-08T04:51:18;1;1;
55591;PMS5003;41454;53.396;-1.510;2022-12-08T04:53:46;2;2;
55591;PMS5003;41454;53.396;-1.510;2022-12-08T04:56:14;2;2;
55591;PMS5003;41454;53.396;-1.510;2022-12-08T04:58:44;2;2;
55591;PMS5003;41454;53.396;-1.510;2022-12-08T05:01:11;2;2;
55591;PMS5003;41454;53.396;-1.510;2022-12-08T05:03:39;2;2;
55591;PMS5003;41454;53.396;-1.510;2022-12-08T05:06:06;1;1;
55591;PMS5003;41454;53.396;-1.510;2022-12-08T05:08:35;1;1;
55591;PMS5003;41454;53.396;-1.510;2022-12-08T05:11:03;1;1;
55591;PMS5003;41454;53.396;-1.510;2022-12-08T05:13:33;1;1;
55591;PMS5003;41454;53.396;-1.510;2022-12-08T05:16:01;1;1;
55591;PMS5003;41454;53.396;-1.510;2022-12-08T05:18:29;1;1;
55591;PMS5003;41454;53.396;-1.510;2022-12-08T05:20:57;1;1;
55591;PMS5003;41454;53.396;-1.510;2022-12-08T05:23:25;2;2;
55591;PMS5003;41454;53.396;-1.510;2022-12-08T05:25:52;2;2;
55591;PMS5003;41454;53.396;-1.510;2022-12-08T05:28:19;1;1;
55591;PMS5003;41454;53.396;-1.510;2022-12-08T05:30:47;1;1;
55591;PMS5003;41454;53.396;-1.510;2022-12-08T05:33:14;1;1;
55591;PMS5003;41454;53.396;-1.510;2022-12-08T05:35:42;4;3;
55591;PMS5003;41454;53.396;-1.510;2022-12-08T05:38:08;3;2;
55591;PMS5003;41454;53.396;-1.510;2022-12-08T05:40:36;3;2;
55591;PMS5003;41454;53.396;-1.510;2022-12-08T05:43:04;1;1;
55591;PMS5003;41454;53.396;-1.510;2022-12-08T05:45:32;1;1;
55591;PMS5003;41454;53.396;-1.510;2022-12-08T05:47:59;1;1;
55591;PMS5003;41454;53.396;-1.510;2022-12-08T05:50:27;1;1;
55591;PMS5003;41454;53.396;-1.510;2022-12-08T05:52:54;1;1;
55591;PMS5003;41454;53.396;-1.510;2022-12-08T05:55:21;1;1;
55591;PMS5003;41454;53.396;-1.510;2022-12-08T05:57:48;0;0;
55591;PMS5003;41454;53.396;-1.510;2022-12-08T06:00:15;3;3;
55591;PMS5003;41454;53.396;-1.510;2022-12-08T06:02:43;3;3;
55591;PMS5003;41454;53.396;-1.510;2022-12-08T06:05:11;1;1;
55591;PMS5003;41454;53.396;-1.510;2022-12-08T06:07:38;1;1;
55591;PMS5003;41454;53.396;-1.510;2022-12-08T06:10:05;2;2;
55591;PMS5003;41454;53.396;-1.510;2022-12-08T06:12:33;1;1;
55591;PMS5003;41454;53.396;-1.510;2022-12-08T06:15:01;2;2;
55591;PMS5003;41454;53.396;-1.510;2022-12-08T06:17:29;2;2;
55591;PMS5003;41454;53.396;-1.510;2022-12-08T06:19:55;1;1;
55591;PMS5003;41454;53.396;-1.510;2022-12-08T06:22:22;3;3;
55591;PMS5003;41454;53.396;-1.510;2022-12-08T06:24:49;2;2;
55591;PMS5003;41454;53.396;-1.510;2022-12-08T06:27:16;2;2;
55591;PMS5003;41454;53.396;-1.510;2022-12-08T06:29:43;2;2;
55591;PMS5003;41454;53.396;-1.510;2022-12-08T06:32:10;2;2;
55591;PMS5003;41454;53.396;-1.510;2022-12-08T06:34:38;1;1;
55591;PMS5003;41454;53.396;-1.510;2022-12-08T06:37:04;3;2;
55591;PMS5003;41454;53.396;-1.510;2022-12-08T06:39:31;3;2;
55591;PMS5003;41454;53.396;-1.510;2022-12-08T06:41:58;1;1;
55591;PMS5003;41454;53.396;-1.510;2022-12-08T06:44:25;1;1;
55591;PMS5003;41454;53.396;-1.510;2022-12-08T06:46:52;2;1;
55591;PMS5003;41454;53.396;-1.510;2022-12-08T06:49:19;2;2;
55591;PMS5003;41454;53.396;-1.510;2022-12-08T06:51:47;3;2;
55591;PMS5003;41454;53.396;-1.510;2022-12-08T06:54:14;2;2;
55591;PMS5003;41454;53.396;-1.510;2022-12-08T06:56:41;2;2;
55591;PMS5003;41454;53.396;-1.510;2022-12-08T06:59:08;1;1;
55591;PMS5003;41454;53.396;-1.510;2022-12-08T07:01:35;2;2;
55591;PMS5003;41454;53.396;-1.510;2022-12-08T07:04:01;3;3;
55591;PMS5003;41454;53.396;-1.510;2022-12-08T07:06:28;3;1;
55591;PMS5003;41454;53.396;-1.510;2022-12-08T07:08:55;4;3;
55591;PMS5003;41454;53.396;-1.510;2022-12-08T07:11:22;3;3;
55591;PMS5003;41454;53.396;-1.510;2022-12-08T07:13:49;2;2;
55591;PMS5003;41454;53.396;-1.510;2022-12-08T07:16:16;3;3;
55591;PMS5003;41454;53.396;-1.510;2022-12-08T07:18:44;3;3;
55591;PMS5003;41454;53.396;-1.510;2022-12-08T07:21:11;2;2;
55591;PMS5003;41454;53.396;-1.510;2022-12-08T07:23:39;3;2;
55591;PMS5003;41454;53.396;-1.510;2022-12-08T07:26:08;1;1;
55591;PMS5003;41454;53.396;-1.510;2022-12-08T07:28:37;2;2;
55591;PMS5003;41454;53.396;-1.510;2022-12-08T07:31:06;2;1;
55591;PMS5003;41454;53.396;-1.510;2022-12-08T07:33:41;2;2;
55591;PMS5003;41454;53.396;-1.510;2022-12-08T07:36:08;2;2;
55591;PMS5003;41454;53.396;-1.510;2022-12-08T07:38:35;2;2;
55591;PMS5003;41454;53.396;-1.510;2022-12-08T07:41:02;2;2;
55591;PMS5003;41454;53.396;-1.510;2022-12-08T07:43:29;1;1;
55591;PMS5003;41454;53.396;-1.510;2022-12-08T07:45:55;2;2;
55591;PMS5003;41454;53.396;-1.510;2022-12-08T07:48:22;2;2;
55591;PMS5003;41454;53.396;-1.510;2022-12-08T07:50:49;2;2;
55591;PMS5003;41454;53.396;-1.510;2022-12-08T07:53:16;4;3;
55591;PMS5003;41454;53.396;-1.510;2022-12-08T07:55:43;4;4;
55591;PMS5003;41454;53.396;-1.510;2022-12-08T07:58:10;5;5;
55591;PMS5003;41454;53.396;-1.510;2022-12-08T08:00:37;4;4;
55591;PMS5003;41454;53.396;-1.510;2022-12-08T08:03:05;2;2;
55591;PMS5003;41454;53.396;-1.510;2022-12-08T08:05:31;3;3;
55591;PMS5003;41454;53.396;-1.510;2022-12-08T08:07:58;2;2;
55591;PMS5003;41454;53.396;-1.510;2022-12-08T08:10:25;1;1;
55591;PMS5003;41454;53.396;-1.510;2022-12-08T08:12:52;3;3;
55591;PMS5003;41454;53.396;-1.510;2022-12-08T08:15:18;4;4;
55591;PMS5003;41454;53.396;-1.510;2022-12-08T08:17:47;3;3;
55591;PMS5003;41454;53.396;-1.510;2022-12-08T08:20:16;2;2;
55591;PMS5003;41454;53.396;-1.510;2022-12-08T08:22:44;7;3;
55591;PMS5003;41454;53.396;-1.510;2022-12-08T08:25:12;4;3;
55591;PMS5003;41454;53.396;-1.510;2022-12-08T08:27:39;3;3;
55591;PMS5003;41454;53.396;-1.510;2022-12-08T08:30:08;1;1;
55591;PMS5003;41454;53.396;-1.510;2022-12-08T08:32:37;10;9;
55591;PMS5003;41454;53.396;-1.510;2022-12-08T08:35:04;9;9;
55591;PMS5003;41454;53.396;-1.510;2022-12-08T08:37:32;2;2;
55591;PMS5003;41454;53.396;-1.510;2022-12-08T08:39:59;4;4;
55591;PMS5003;41454;53.396;-1.510;2022-12-08T08:42:26;3;3;
55591;PMS5003;41454;53.396;-1.510;2022-12-08T08:44:53;7;5;
55591;PMS5003;41454;53.396;-1.510;2022-12-08T08:47:20;7;7;
55591;PMS5003;41454;53.396;-1.510;2022-12-08T08:49:47;3;3;
55591;PMS5003;41454;53.396;-1.510;2022-12-08T08:52:14;3;3;
55591;PMS5003;41454;53.396;-1.510;2022-12-08T08:54:40;3;3;
55591;PMS5003;41454;53.396;-1.510;2022-12-08T08:57:07;4;4;
55591;PMS5003;41454;53.396;-1.510;2022-12-08T08:59:34;4;4;
55591;PMS5003;41454;53.396;-1.510;2022-12-08T09:02:02;4;4;
55591;PMS5003;41454;53.396;-1.510;2022-12-08T09:04:28;3;3;
55591;PMS5003;41454;53.396;-1.510;2022-12-08T09:06:55;11;9;
55591;PMS5003;41454;53.396;-1.510;2022-12-08T09:09:22;3;3;
55591;PMS5003;41454;53.396;-1.510;2022-12-08T09:11:49;10;7;
55591;PMS5003;41454;53.396;-1.510;2022-12-08T09:14:16;5;5;
55591;PMS5003;41454;53.396;-1.510;2022-12-08T09:16:42;8;7;
55591;PMS5003;41454;53.396;-1.510;2022-12-08T09:19:09;4;4;
55591;PMS5003;41454;53.396;-1.510;2022-12-08T09:21:36;7;7;
55591;PMS5003;41454;53.396;-1.510;2022-12-08T09:24:06;10;9;
55591;PMS5003;41454;53.396;-1.510;2022-12-08T09:26:33;11;9;
55591;PMS5003;41454;53.396;-1.510;2022-12-08T09:29:01;6;6;
55591;PMS5003;41454;53.396;-1.510;2022-12-08T09:31:27;12;12;
55591;PMS5003;41454;53.396;-1.510;2022-12-08T09:33:55;15;15;
55591;PMS5003;41454;53.396;-1.510;2022-12-08T09:36:22;14;11;
55591;PMS5003;41454;53.396;-1.510;2022-12-08T09:38:48;10;9;
55591;PMS5003;41454;53.396;-1.510;2022-12-08T09:41:16;5;5;
55591;PMS5003;41454;53.396;-1.510;2022-12-08T09:43:56;5;4;
55591;PMS5003;41454;53.396;-1.510;2022-12-08T09:46:38;4;4;
55591;PMS5003;41454;53.396;-1.510;2022-12-08T09:49:08;5;5;
55591;PMS5003;41454;53.396;-1.510;2022-12-08T09:51:39;16;11;
55591;PMS5003;41454;53.396;-1.510;2022-12-08T09:54:10;11;11;
55591;PMS5003;41454;53.396;-1.510;2022-12-08T09:56:43;11;11;
55591;PMS5003;41454;53.396;-1.510;2022-12-08T09:59:16;11;11;
55591;PMS5003;41454;53.396;-1.510;2022-12-08T10:01:49;15;15;
55591;PMS5003;41454;53.396;-1.510;2022-12-08T10:04:19;13;11;
55591;PMS5003;41454;53.396;-1.510;2022-12-08T10:06:53;9;9;
55591;PMS5003;41454;53.396;-1.510;2022-12-08T10:09:29;6;6;
55591;PMS5003;41454;53.396;-1.510;2022-12-08T10:12:07;8;5;
55591;PMS5003;41454;53.396;-1.510;2022-12-08T10:14:42;5;5;
55591;PMS5003;41454;53.396;-1.510;2022-12-08T10:17:14;5;5;
55591;PMS5003;41454;53.396;-1.510;2022-12-08T10:19:45;3;3;
55591;PMS5003;41454;53.396;-1.510;2022-12-08T10:22:16;3;3;
55591;PMS5003;41454;53.396;-1.510;2022-12-08T10:24:51;5;4;
55591;PMS5003;41454;53.396;-1.510;2022-12-08T10:27:23;7;6;
55591;PMS5003;41454;53.396;-1.510;2022-12-08T10:29:51;3;3;
55591;PMS5003;41454;53.396;-1.510;2022-12-08T10:32:19;5;5;
55591;PMS5003;41454;53.396;-1.510;2022-12-08T10:35:04;6;5;
55591;PMS5003;41454;53.396;-1.510;2022-12-08T10:37:33;9;9;
55591;PMS5003;41454;53.396;-1.510;2022-12-08T10:40:04;7;6;
55591;PMS5003;41454;53.396;-1.510;2022-12-08T10:42:37;4;4;
55591;PMS5003;41454;53.396;-1.510;2022-12-08T10:45:14;5;5;
55591;PMS5003;41454;53.396;-1.510;2022-12-08T10:47:49;2;2;
55591;PMS5003;41454;53.396;-1.510;2022-12-08T10:50:27;4;4;
55591;PMS5003;41454;53.396;-1.510;2022-12-08T10:52:58;7;7;
55591;PMS5003;41454;53.396;-1.510;2022-12-08T10:55:27;5;5;
55591;PMS5003;41454;53.396;-1.510;2022-12-08T10:58:04;4;4;
55591;PMS5003;41454;53.396;-1.510;2022-12-08T11:00:42;5;4;
55591;PMS5003;41454;53.396;-1.510;2022-12-08T11:03:18;4;4;
55591;PMS5003;41454;53.396;-1.510;2022-12-08T11:05:49;3;2;
55591;PMS5003;41454;53.396;-1.510;2022-12-08T11:08:21;2;1;
55591;PMS5003;41454;53.396;-1.510;2022-12-08T11:10:49;2;2;
55591;PMS5003;41454;53.396;-1.510;2022-12-08T11:13:18;3;3;
55591;PMS5003;41454;53.396;-1.510;2022-12-08T11:15:49;3;3;
55591;PMS5003;41454;53.396;-1.510;2022-12-08T11:18:21;4;3;
55591;PMS5003;41454;53.396;-1.510;2022-12-08T11:20:56;4;4;
55591;PMS5003;41454;53.396;-1.510;2022-12-08T11:23:28;1;1;
55591;PMS5003;41454;53.396;-1.510;2022-12-08T11:25:57;7;6;
55591;PMS5003;41454;53.396;-1.510;2022-12-08T11:28:30;10;9;
55591;PMS5003;41454;53.396;-1.510;2022-12-08T11:30:59;3;2;
55591;PMS5003;41454;53.396;-1.510;2022-12-08T11:33:36;5;2;
55591;PMS5003;41454;53.396;-1.510;2022-12-08T11:36:04;4;4;
55591;PMS5003;41454;53.396;-1.510;2022-12-08T11:38:39;1;1;
55591;PMS5003;41454;53.396;-1.510;2022-12-08T11:41:09;2;2;
55591;PMS5003;41454;53.396;-1.510;2022-12-08T11:43:41;2;2;
55591;PMS5003;41454;53.396;-1.510;2022-12-08T11:46:16;2;2;
55591;PMS5003;41454;53.396;-1.510;2022-12-08T11:48:58;2;2;
55591;PMS5003;41454;53.396;-1.510;2022-12-08T11:51:31;2;2;
55591;PMS5003;41454;53.396;-1.510;2022-12-08T11:54:04;1;1;
55591;PMS5003;41454;53.396;-1.510;2022-12-08T11:56:40;2;2;
55591;PMS5003;41454;53.396;-1.510;2022-12-08T11:59:14;2;2;
55591;PMS5003;41454;53.396;-1.510;2022-12-08T12:01:48;2;2;
55591;PMS5003;41454;53.396;-1.510;2022-12-08T12:04:18;2;2;
55591;PMS5003;41454;53.396;-1.510;2022-12-08T12:06:57;2;2;
55591;PMS5003;41454;53.396;-1.510;2022-12-08T12:10:16;4;3;
55591;PMS5003;41454;53.396;-1.510;2022-12-08T12:12:56;4;4;
55591;PMS5003;41454;53.396;-1.510;2022-12-08T12:15:50;2;2;
55591;PMS5003;41454;53.396;-1.510;2022-12-08T12:18:37;3;2;
55591;PMS5003;41454;53.396;-1.510;2022-12-08T12:21:09;2;2;
55591;PMS5003;41454;53.396;-1.510;2022-12-08T12:23:41;2;2;
55591;PMS5003;41454;53.396;-1.510;2022-12-08T12:26:15;2;2;
55591;PMS5003;41454;53.396;-1.510;2022-12-08T12:28:47;3;2;
55591;PMS5003;41454;53.396;-1.510;2022-12-08T12:31:18;1;1;
55591;PMS5003;41454;53.396;-1.510;2022-12-08T12:33:50;1;1;
55591;PMS5003;41454;53.396;-1.510;2022-12-08T12:36:19;2;2;
55591;PMS5003;41454;53.396;-1.510;2022-12-08T12:38:47;4;2;
55591;PMS5003;41454;53.396;-1.510;2022-12-08T12:41:20;3;2;
55591;PMS5003;41454;53.396;-1.510;2022-12-08T12:44:06;2;2;
55591;PMS5003;41454;53.396;-1.510;2022-12-08T12:46:38;3;2;
55591;PMS5003;41454;53.396;-1.510;2022-12-08T12:49:51;2;2;
55591;PMS5003;41454;53.396;-1.510;2022-12-08T12:52:35;3;3;
55591;PMS5003;41454;53.396;-1.510;2022-12-08T12:55:20;1;1;
55591;PMS5003;41454;53.396;-1.510;2022-12-08T12:57:51;2;2;
55591;PMS5003;41454;53.396;-1.510;2022-12-08T13:00:20;3;3;
55591;PMS5003;41454;53.396;-1.510;2022-12-08T13:02:49;1;1;
55591;PMS5003;41454;53.396;-1.510;2022-12-08T13:05:19;1;1;
55591;PMS5003;41454;53.396;-1.510;2022-12-08T13:07:50;1;1;
55591;PMS5003;41454;53.396;-1.510;2022-12-08T13:10:22;3;3;
55591;PMS5003;41454;53.396;-1.510;2022-12-08T13:13:15;4;2;
55591;PMS5003;41454;53.396;-1.510;2022-12-08T13:15:47;1;1;
55591;PMS5003;41454;53.396;-1.510;2022-12-08T13:18:17;2;2;
55591;PMS5003;41454;53.396;-1.510;2022-12-08T13:20:47;2;2;
55591;PMS5003;41454;53.396;-1.510;2022-12-08T13:23:26;1;1;
55591;PMS5003;41454;53.396;-1.510;2022-12-08T13:26:09;1;1;
55591;PMS5003;41454;53.396;-1.510;2022-12-08T13:29:42;4;2;
55591;PMS5003;41454;53.396;-1.510;2022-12-08T13:32:53;3;3;
55591;PMS5003;41454;53.396;-1.510;2022-12-08T13:35:22;1;1;
55591;PMS5003;41454;53.396;-1.510;2022-12-08T13:37:51;24;23;
55591;PMS5003;41454;53.396;-1.510;2022-12-08T13:40:21;2;2;
55591;PMS5003;41454;53.396;-1.510;2022-12-08T13:42:54;2;2;
55591;PMS5003;41454;53.396;-1.510;2022-12-08T13:45:30;4;4;
55591;PMS5003;41454;53.396;-1.510;2022-12-08T13:48:03;2;2;
55591;PMS5003;41454;53.396;-1.510;2022-12-08T13:50:38;5;3;
55591;PMS5003;41454;53.396;-1.510;2022-12-08T13:53:10;4;4;
55591;PMS5003;41454;53.396;-1.510;2022-12-08T13:55:42;7;4;
55591;PMS5003;41454;53.396;-1.510;2022-12-08T13:58:16;2;2;
55591;PMS5003;41454;53.396;-1.510;2022-12-08T14:00:52;3;3;
55591;PMS5003;41454;53.396;-1.510;2022-12-08T14:03:23;5;5;
55591;PMS5003;41454;53.396;-1.510;2022-12-08T14:05:50;3;3;
55591;PMS5003;41454;53.396;-1.510;2022-12-08T14:08:18;3;3;
55591;PMS5003;41454;53.396;-1.510;2022-12-08T14:10:51;13;13;
55591;PMS5003;41454;53.396;-1.510;2022-12-08T14:13:24;3;3;
55591;PMS5003;41454;53.396;-1.510;2022-12-08T14:15:52;5;5;
55591;PMS5003;41454;53.396;-1.510;2022-12-08T14:18:22;6;4;
55591;PMS5003;41454;53.396;-1.510;2022-12-08T14:20:58;13;9;
55591;PMS5003;41454;53.396;-1.510;2022-12-08T14:23:26;20;20;
55591;PMS5003;41454;53.396;-1.510;2022-12-08T14:25:53;6;6;
55591;PMS5003;41454;53.396;-1.510;2022-12-08T14:28:21;13;12;
55591;PMS5003;41454;53.396;-1.510;2022-12-08T14:30:50;4;4;
55591;PMS5003;41454;53.396;-1.510;2022-12-08T14:33:20;9;8;
55591;PMS5003;41454;53.396;-1.510;2022-12-08T14:35:48;6;4;
55591;PMS5003;41454;53.396;-1.510;2022-12-08T14:38:18;2;2;
55591;PMS5003;41454;53.396;-1.510;2022-12-08T14:40:47;4;3;
55591;PMS5003;41454;53.396;-1.510;2022-12-08T14:43:25;4;3;
55591;PMS5003;41454;53.396;-1.510;2022-12-08T14:45:54;5;5;
55591;PMS5003;41454;53.396;-1.510;2022-12-08T14:48:25;4;4;
55591;PMS5003;41454;53.396;-1.510;2022-12-08T14:51:06;9;7;
55591;PMS5003;41454;53.396;-1.510;2022-12-08T14:53:39;2;2;
55591;PMS5003;41454;53.396;-1.510;2022-12-08T14:56:12;11;11;
55591;PMS5003;41454;53.396;-1.510;2022-12-08T14:58:44;3;3;
55591;PMS5003;41454;53.396;-1.510;2022-12-08T15:01:13;20;20;
55591;PMS5003;41454;53.396;-1.510;2022-12-08T15:03:43;4;4;
55591;PMS5003;41454;53.396;-1.510;2022-12-08T15:06:10;22;22;
55591;PMS5003;41454;53.396;-1.510;2022-12-08T15:08:49;5;5;
55591;PMS5003;41454;53.396;-1.510;2022-12-08T15:11:34;4;4;
55591;PMS5003;41454;53.396;-1.510;2022-12-08T15:14:02;7;7;
55591;PMS5003;41454;53.396;-1.510;2022-12-08T15:16:30;9;8;
55591;PMS5003;41454;53.396;-1.510;2022-12-08T15:19:13;4;4;
55591;PMS5003;41454;53.396;-1.510;2022-12-08T15:21:43;22;22;
55591;PMS5003;41454;53.396;-1.510;2022-12-08T15:24:12;7;7;
55591;PMS5003;41454;53.396;-1.510;2022-12-08T15:26:42;7;7;
55591;PMS5003;41454;53.396;-1.510;2022-12-08T15:29:17;6;6;
55591;PMS5003;41454;53.396;-1.510;2022-12-08T15:31:46;7;7;
55591;PMS5003;41454;53.396;-1.510;2022-12-08T15:34:14;5;5;
55591;PMS5003;41454;53.396;-1.510;2022-12-08T15:36:40;8;7;
55591;PMS5003;41454;53.396;-1.510;2022-12-08T15:39:12;5;5;
55591;PMS5003;41454;53.396;-1.510;2022-12-08T15:41:49;5;5;
55591;PMS5003;41454;53.396;-1.510;2022-12-08T15:44:15;13;12;
55591;PMS5003;41454;53.396;-1.510;2022-12-08T15:46:43;7;7;
55591;PMS5003;41454;53.396;-1.510;2022-12-08T15:49:12;15;14;
55591;PMS5003;41454;53.396;-1.510;2022-12-08T15:51:43;13;13;
55591;PMS5003;41454;53.396;-1.510;2022-12-08T15:54:10;14;14;
55591;PMS5003;41454;53.396;-1.510;2022-12-08T15:56:39;12;12;
55591;PMS5003;41454;53.396;-1.510;2022-12-08T15:59:11;8;8;
55591;PMS5003;41454;53.396;-1.510;2022-12-08T16:01:42;7;7;
55591;PMS5003;41454;53.396;-1.510;2022-12-08T16:04:11;8;7;
55591;PMS5003;41454;53.396;-1.510;2022-12-08T16:06:39;12;8;
55591;PMS5003;41454;53.396;-1.510;2022-12-08T16:09:10;12;8;
55591;PMS5003;41454;53.396;-1.510;2022-12-08T16:11:42;8;7;
55591;PMS5003;41454;53.396;-1.510;2022-12-08T16:14:09;8;8;
55591;PMS5003;41454;53.396;-1.510;2022-12-08T16:16:36;11;11;
55591;PMS5003;41454;53.396;-1.510;2022-12-08T16:19:04;12;12;
55591;PMS5003;41454;53.396;-1.510;2022-12-08T16:21:31;10;10;
55591;PMS5003;41454;53.396;-1.510;2022-12-08T16:24:03;11;10;
55591;PMS5003;41454;53.396;-1.510;2022-12-08T16:26:42;11;10;
55591;PMS5003;41454;53.396;-1.510;2022-12-08T16:29:30;12;11;
55591;PMS5003;41454;53.396;-1.510;2022-12-08T16:31:58;7;7;
55591;PMS5003;41454;53.396;-1.510;2022-12-08T16:34:25;10;10;
55591;PMS5003;41454;53.396;-1.510;2022-12-08T16:36:52;13;13;
55591;PMS5003;41454;53.396;-1.510;2022-12-08T16:39:19;10;10;
55591;PMS5003;41454;53.396;-1.510;2022-12-08T16:41:45;13;13;
55591;PMS5003;41454;53.396;-1.510;2022-12-08T16:44:12;13;10;
55591;PMS5003;41454;53.396;-1.510;2022-12-08T16:46:39;14;14;
55591;PMS5003;41454;53.396;-1.510;2022-12-08T16:49:07;16;15;
55591;PMS5003;41454;53.396;-1.510;2022-12-08T16:51:35;12;10;
55591;PMS5003;41454;53.396;-1.510;2022-12-08T16:54:02;14;14;
55591;PMS5003;41454;53.396;-1.510;2022-12-08T16:56:29;27;26;